sensor_id;sensor_type;location;lat;lon;timestamp;P1;durP1;ratioP1;P2;durP2;ratioP2
22005;SDS011;11167;46.988;15.470;2022-12-18T00:00:40;19.37;;;13.32;;
22005;SDS011;11167;46.988;15.470;2022-12-18T00:02:42;18.02;;;12.55;;
22005;SDS011;11167;46.988;15.470;2022-12-18T00:04:43;17.98;;;13.25;;
22005;SDS011;11167;46.988;15.470;2022-12-18T00:06:44;19.07;;;13.15;;
22005;SDS011;11167;46.988;15.470;2022-12-18T00:08:45;18.10;;;13.30;;
22005;SDS011;11167;46.988;15.470;2022-12-18T00:10:46;20.12;;;13.95;;
22005;SDS011;11167;46.988;15.470;2022-12-18T00:12:48;17.70;;;13.68;;
22005;SDS011;11167;46.988;15.470;2022-12-18T00:14:49;17.52;;;12.70;;
22005;SDS011;11167;46.988;15.470;2022-12-18T00:16:50;16.82;;;12.18;;
22005;SDS011;11167;46.988;15.470;2022-12-18T00:18:52;16.95;;;12.95;;
22005;SDS011;11167;46.988;15.470;2022-12-18T00:20:57;17.80;;;12.55;;
22005;SDS011;11167;46.988;15.470;2022-12-18T00:23:04;16.37;;;12.80;;
22005;SDS011;11167;46.988;15.470;2022-12-18T00:25:06;18.62;;;13.62;;
22005;SDS011;11167;46.988;15.470;2022-12-18T00:27:08;17.92;;;13.68;;
22005;SDS011;11167;46.988;15.470;2022-12-18T00:29:11;19.32;;;14.15;;
22005;SDS011;11167;46.988;15.470;2022-12-18T00:31:19;19.12;;;13.75;;
22005;SDS011;11167;46.988;15.470;2022-12-18T00:33:19;18.87;;;13.88;;
22005;SDS011;11167;46.988;15.470;2022-12-18T00:35:20;18.60;;;13.78;;
22005;SDS011;11167;46.988;15.470;2022-12-18T00:37:21;17.75;;;13.28;;
22005;SDS011;11167;46.988;15.470;2022-12-18T00:39:23;21.23;;;14.33;;
22005;SDS011;11167;46.988;15.470;2022-12-18T00:41:24;19.25;;;14.47;;
22005;SDS011;11167;46.988;15.470;2022-12-18T00:43:44;19.10;;;13.90;;
22005;SDS011;11167;46.988;15.470;2022-12-18T00:45:45;18.42;;;13.78;;
22005;SDS011;11167;46.988;15.470;2022-12-18T00:47:46;18.37;;;14.20;;
22005;SDS011;11167;46.988;15.470;2022-12-18T00:49:47;18.45;;;13.28;;
22005;SDS011;11167;46.988;15.470;2022-12-18T00:51:48;18.30;;;13.98;;
22005;SDS011;11167;46.988;15.470;2022-12-18T00:53:50;18.65;;;13.58;;
22005;SDS011;11167;46.988;15.470;2022-12-18T00:55:51;18.62;;;13.60;;
22005;SDS011;11167;46.988;15.470;2022-12-18T00:57:52;19.45;;;14.23;;
22005;SDS011;11167;46.988;15.470;2022-12-18T00:59:54;19.35;;;14.18;;
22005;SDS011;11167;46.988;15.470;2022-12-18T01:01:55;20.12;;;14.03;;
22005;SDS011;11167;46.988;15.470;2022-12-18T01:03:56;18.10;;;12.88;;
22005;SDS011;11167;46.988;15.470;2022-12-18T01:05:57;18.75;;;13.58;;
22005;SDS011;11167;46.988;15.470;2022-12-18T01:07:58;18.32;;;13.48;;
22005;SDS011;11167;46.988;15.470;2022-12-18T01:10:00;19.87;;;13.90;;
22005;SDS011;11167;46.988;15.470;2022-12-18T01:12:01;19.40;;;13.85;;
22005;SDS011;11167;46.988;15.470;2022-12-18T01:14:02;19.20;;;13.43;;
22005;SDS011;11167;46.988;15.470;2022-12-18T01:16:04;18.77;;;13.72;;
22005;SDS011;11167;46.988;15.470;2022-12-18T01:18:06;19.62;;;14.33;;
22005;SDS011;11167;46.988;15.470;2022-12-18T01:20:07;20.72;;;13.98;;
22005;SDS011;11167;46.988;15.470;2022-12-18T01:22:09;17.92;;;12.95;;
22005;SDS011;11167;46.988;15.470;2022-12-18T01:24:11;19.27;;;13.48;;
22005;SDS011;11167;46.988;15.470;2022-12-18T01:26:13;19.20;;;14.00;;
22005;SDS011;11167;46.988;15.470;2022-12-18T01:28:15;16.42;;;12.65;;
22005;SDS011;11167;46.988;15.470;2022-12-18T01:30:16;17.92;;;13.18;;
22005;SDS011;11167;46.988;15.470;2022-12-18T01:32:18;19.10;;;13.08;;
22005;SDS011;11167;46.988;15.470;2022-12-18T01:34:19;16.70;;;12.75;;
22005;SDS011;11167;46.988;15.470;2022-12-18T01:36:21;18.77;;;13.25;;
22005;SDS011;11167;46.988;15.470;2022-12-18T01:38:28;16.77;;;12.70;;
22005;SDS011;11167;46.988;15.470;2022-12-18T01:40:29;17.27;;;12.98;;
22005;SDS011;11167;46.988;15.470;2022-12-18T01:42:31;17.80;;;12.98;;
22005;SDS011;11167;46.988;15.470;2022-12-18T01:46:54;18.40;;;13.20;;
22005;SDS011;11167;46.988;15.470;2022-12-18T01:48:56;17.67;;;12.43;;
22005;SDS011;11167;46.988;15.470;2022-12-18T01:50:59;16.73;;;12.00;;
22005;SDS011;11167;46.988;15.470;2022-12-18T01:55:11;18.62;;;12.55;;
22005;SDS011;11167;46.988;15.470;2022-12-18T01:57:12;16.70;;;12.45;;
22005;SDS011;11167;46.988;15.470;2022-12-18T01:59:14;18.50;;;12.73;;
22005;SDS011;11167;46.988;15.470;2022-12-18T02:01:15;18.37;;;12.75;;
22005;SDS011;11167;46.988;15.470;2022-12-18T02:03:17;17.42;;;12.70;;
22005;SDS011;11167;46.988;15.470;2022-12-18T02:05:21;18.98;;;14.05;;
22005;SDS011;11167;46.988;15.470;2022-12-18T02:07:37;17.73;;;13.03;;
22005;SDS011;11167;46.988;15.470;2022-12-18T02:09:50;17.80;;;12.93;;
22005;SDS011;11167;46.988;15.470;2022-12-18T02:11:53;18.85;;;13.18;;
22005;SDS011;11167;46.988;15.470;2022-12-18T02:18:42;20.95;;;13.55;;
22005;SDS011;11167;46.988;15.470;2022-12-18T02:20:52;18.80;;;13.22;;
22005;SDS011;11167;46.988;15.470;2022-12-18T02:23:17;21.07;;;13.65;;
22005;SDS011;11167;46.988;15.470;2022-12-18T02:25:29;18.17;;;12.45;;
22005;SDS011;11167;46.988;15.470;2022-12-18T02:27:47;18.95;;;13.00;;
22005;SDS011;11167;46.988;15.470;2022-12-18T02:31:57;16.10;;;12.23;;
22005;SDS011;11167;46.988;15.470;2022-12-18T02:33:59;19.62;;;13.60;;
22005;SDS011;11167;46.988;15.470;2022-12-18T02:36:03;18.37;;;12.30;;
22005;SDS011;11167;46.988;15.470;2022-12-18T02:38:06;21.42;;;13.75;;
22005;SDS011;11167;46.988;15.470;2022-12-18T02:40:08;18.75;;;13.28;;
22005;SDS011;11167;46.988;15.470;2022-12-18T02:42:12;20.12;;;14.10;;
22005;SDS011;11167;46.988;15.470;2022-12-18T02:44:14;21.05;;;14.07;;
22005;SDS011;11167;46.988;15.470;2022-12-18T02:48:53;22.30;;;14.95;;
22005;SDS011;11167;46.988;15.470;2022-12-18T02:51:14;20.97;;;14.55;;
22005;SDS011;11167;46.988;15.470;2022-12-18T02:53:27;21.90;;;14.38;;
22005;SDS011;11167;46.988;15.470;2022-12-18T03:00:21;20.40;;;14.25;;
22005;SDS011;11167;46.988;15.470;2022-12-18T03:02:36;21.35;;;13.95;;
22005;SDS011;11167;46.988;15.470;2022-12-18T03:04:49;24.67;;;15.53;;
22005;SDS011;11167;46.988;15.470;2022-12-18T03:06:56;22.65;;;14.60;;
22005;SDS011;11167;46.988;15.470;2022-12-18T03:09:01;20.75;;;14.03;;
22005;SDS011;11167;46.988;15.470;2022-12-18T03:11:11;20.88;;;13.25;;
22005;SDS011;11167;46.988;15.470;2022-12-18T03:13:16;19.23;;;13.75;;
22005;SDS011;11167;46.988;15.470;2022-12-18T03:15:23;19.73;;;12.85;;
22005;SDS011;11167;46.988;15.470;2022-12-18T03:17:27;21.12;;;14.33;;
22005;SDS011;11167;46.988;15.470;2022-12-18T03:19:31;20.23;;;13.65;;
22005;SDS011;11167;46.988;15.470;2022-12-18T03:21:43;20.02;;;13.60;;
22005;SDS011;11167;46.988;15.470;2022-12-18T03:23:50;22.15;;;14.38;;
22005;SDS011;11167;46.988;15.470;2022-12-18T03:25:54;21.35;;;14.15;;
22005;SDS011;11167;46.988;15.470;2022-12-18T03:27:58;19.82;;;14.13;;
22005;SDS011;11167;46.988;15.470;2022-12-18T03:30:06;21.97;;;14.38;;
22005;SDS011;11167;46.988;15.470;2022-12-18T03:32:11;20.90;;;14.05;;
22005;SDS011;11167;46.988;15.470;2022-12-18T03:34:23;22.02;;;13.88;;
22005;SDS011;11167;46.988;15.470;2022-12-18T03:36:26;21.23;;;14.18;;
22005;SDS011;11167;46.988;15.470;2022-12-18T03:38:28;20.82;;;14.47;;
22005;SDS011;11167;46.988;15.470;2022-12-18T03:40:31;22.07;;;14.47;;
22005;SDS011;11167;46.988;15.470;2022-12-18T03:43:00;21.52;;;14.18;;
22005;SDS011;11167;46.988;15.470;2022-12-18T03:44:56;21.12;;;14.33;;
22005;SDS011;11167;46.988;15.470;2022-12-18T03:47:06;19.87;;;13.53;;
22005;SDS011;11167;46.988;15.470;2022-12-18T03:49:11;20.32;;;14.20;;
22005;SDS011;11167;46.988;15.470;2022-12-18T03:51:16;20.77;;;14.33;;
22005;SDS011;11167;46.988;15.470;2022-12-18T03:55:46;20.68;;;13.55;;
22005;SDS011;11167;46.988;15.470;2022-12-18T03:57:50;19.82;;;13.48;;
22005;SDS011;11167;46.988;15.470;2022-12-18T03:59:56;22.07;;;14.13;;
22005;SDS011;11167;46.988;15.470;2022-12-18T04:02:00;20.50;;;14.07;;
22005;SDS011;11167;46.988;15.470;2022-12-18T04:04:03;21.05;;;14.25;;
22005;SDS011;11167;46.988;15.470;2022-12-18T04:06:06;24.07;;;14.83;;
22005;SDS011;11167;46.988;15.470;2022-12-18T04:08:08;19.20;;;12.90;;
22005;SDS011;11167;46.988;15.470;2022-12-18T04:10:10;21.20;;;14.28;;
22005;SDS011;11167;46.988;15.470;2022-12-18T04:12:13;19.85;;;14.05;;
22005;SDS011;11167;46.988;15.470;2022-12-18T04:14:14;20.57;;;14.25;;
22005;SDS011;11167;46.988;15.470;2022-12-18T04:16:15;20.15;;;13.53;;
22005;SDS011;11167;46.988;15.470;2022-12-18T04:18:17;20.10;;;13.62;;
22005;SDS011;11167;46.988;15.470;2022-12-18T04:20:18;24.32;;;14.45;;
22005;SDS011;11167;46.988;15.470;2022-12-18T04:22:19;22.10;;;14.28;;
22005;SDS011;11167;46.988;15.470;2022-12-18T04:24:20;22.70;;;14.73;;
22005;SDS011;11167;46.988;15.470;2022-12-18T04:26:21;23.92;;;15.08;;
22005;SDS011;11167;46.988;15.470;2022-12-18T04:28:23;23.47;;;15.23;;
22005;SDS011;11167;46.988;15.470;2022-12-18T04:30:24;20.75;;;14.45;;
22005;SDS011;11167;46.988;15.470;2022-12-18T04:32:25;20.82;;;14.47;;
22005;SDS011;11167;46.988;15.470;2022-12-18T04:34:26;21.73;;;14.30;;
22005;SDS011;11167;46.988;15.470;2022-12-18T04:36:27;20.43;;;14.07;;
22005;SDS011;11167;46.988;15.470;2022-12-18T04:38:29;21.75;;;14.65;;
22005;SDS011;11167;46.988;15.470;2022-12-18T04:40:30;21.90;;;14.13;;
22005;SDS011;11167;46.988;15.470;2022-12-18T04:42:31;22.37;;;14.93;;
22005;SDS011;11167;46.988;15.470;2022-12-18T04:44:34;20.50;;;13.65;;
22005;SDS011;11167;46.988;15.470;2022-12-18T04:46:40;21.90;;;14.53;;
22005;SDS011;11167;46.988;15.470;2022-12-18T04:48:42;20.97;;;13.55;;
22005;SDS011;11167;46.988;15.470;2022-12-18T04:52:47;19.42;;;13.95;;
22005;SDS011;11167;46.988;15.470;2022-12-18T04:54:48;19.00;;;12.82;;
22005;SDS011;11167;46.988;15.470;2022-12-18T04:56:49;19.82;;;13.75;;
22005;SDS011;11167;46.988;15.470;2022-12-18T04:58:51;19.42;;;13.30;;
22005;SDS011;11167;46.988;15.470;2022-12-18T05:00:54;19.42;;;12.95;;
22005;SDS011;11167;46.988;15.470;2022-12-18T05:02:55;17.87;;;12.43;;
22005;SDS011;11167;46.988;15.470;2022-12-18T05:04:56;18.57;;;13.28;;
22005;SDS011;11167;46.988;15.470;2022-12-18T05:06:57;18.42;;;12.98;;
22005;SDS011;11167;46.988;15.470;2022-12-18T05:08:58;19.25;;;13.70;;
22005;SDS011;11167;46.988;15.470;2022-12-18T05:11:04;19.57;;;13.45;;
22005;SDS011;11167;46.988;15.470;2022-12-18T05:13:06;21.05;;;13.55;;
22005;SDS011;11167;46.988;15.470;2022-12-18T05:15:07;19.77;;;12.68;;
22005;SDS011;11167;46.988;15.470;2022-12-18T05:17:09;20.88;;;14.25;;
22005;SDS011;11167;46.988;15.470;2022-12-18T05:19:10;18.25;;;13.20;;
22005;SDS011;11167;46.988;15.470;2022-12-18T05:21:11;18.27;;;13.13;;
22005;SDS011;11167;46.988;15.470;2022-12-18T05:23:12;20.50;;;13.70;;
22005;SDS011;11167;46.988;15.470;2022-12-18T05:25:14;19.40;;;13.85;;
22005;SDS011;11167;46.988;15.470;2022-12-18T05:27:15;21.12;;;14.00;;
22005;SDS011;11167;46.988;15.470;2022-12-18T05:29:16;20.17;;;13.83;;
22005;SDS011;11167;46.988;15.470;2022-12-18T05:31:17;19.55;;;13.40;;
22005;SDS011;11167;46.988;15.470;2022-12-18T05:33:19;20.55;;;13.95;;
22005;SDS011;11167;46.988;15.470;2022-12-18T05:35:21;18.00;;;12.95;;
22005;SDS011;11167;46.988;15.470;2022-12-18T05:37:22;20.82;;;13.30;;
22005;SDS011;11167;46.988;15.470;2022-12-18T05:39:23;19.80;;;13.53;;
22005;SDS011;11167;46.988;15.470;2022-12-18T05:41:24;20.65;;;13.43;;
22005;SDS011;11167;46.988;15.470;2022-12-18T05:43:26;20.00;;;13.43;;
22005;SDS011;11167;46.988;15.470;2022-12-18T05:45:27;22.15;;;14.10;;
22005;SDS011;11167;46.988;15.470;2022-12-18T05:47:28;21.48;;;13.20;;
22005;SDS011;11167;46.988;15.470;2022-12-18T05:49:30;19.48;;;13.20;;
22005;SDS011;11167;46.988;15.470;2022-12-18T05:51:31;20.60;;;13.93;;
22005;SDS011;11167;46.988;15.470;2022-12-18T05:53:32;23.30;;;14.45;;
22005;SDS011;11167;46.988;15.470;2022-12-18T05:55:34;22.75;;;13.95;;
22005;SDS011;11167;46.988;15.470;2022-12-18T05:57:35;20.90;;;13.40;;
22005;SDS011;11167;46.988;15.470;2022-12-18T05:59:36;20.30;;;13.80;;
22005;SDS011;11167;46.988;15.470;2022-12-18T06:01:40;22.30;;;14.65;;
22005;SDS011;11167;46.988;15.470;2022-12-18T06:03:41;22.67;;;13.88;;
22005;SDS011;11167;46.988;15.470;2022-12-18T06:05:43;22.70;;;13.50;;
22005;SDS011;11167;46.988;15.470;2022-12-18T06:07:45;22.57;;;14.30;;
22005;SDS011;11167;46.988;15.470;2022-12-18T06:09:46;23.83;;;14.85;;
22005;SDS011;11167;46.988;15.470;2022-12-18T06:11:47;24.67;;;15.23;;
22005;SDS011;11167;46.988;15.470;2022-12-18T06:13:49;22.02;;;14.28;;
22005;SDS011;11167;46.988;15.470;2022-12-18T06:15:52;22.65;;;14.65;;
22005;SDS011;11167;46.988;15.470;2022-12-18T06:17:53;21.12;;;13.45;;
22005;SDS011;11167;46.988;15.470;2022-12-18T06:19:54;20.25;;;13.28;;
22005;SDS011;11167;46.988;15.470;2022-12-18T06:21:55;20.52;;;13.32;;
22005;SDS011;11167;46.988;15.470;2022-12-18T06:23:59;20.35;;;13.88;;
22005;SDS011;11167;46.988;15.470;2022-12-18T06:26:07;20.32;;;13.65;;
22005;SDS011;11167;46.988;15.470;2022-12-18T06:28:09;19.75;;;13.28;;
22005;SDS011;11167;46.988;15.470;2022-12-18T06:30:11;19.62;;;13.30;;
22005;SDS011;11167;46.988;15.470;2022-12-18T06:32:13;20.90;;;13.18;;
22005;SDS011;11167;46.988;15.470;2022-12-18T06:34:14;21.57;;;13.43;;
22005;SDS011;11167;46.988;15.470;2022-12-18T06:36:16;15.93;;;11.22;;
22005;SDS011;11167;46.988;15.470;2022-12-18T06:38:17;17.85;;;12.37;;
22005;SDS011;11167;46.988;15.470;2022-12-18T06:40:18;18.23;;;11.55;;
22005;SDS011;11167;46.988;15.470;2022-12-18T06:42:20;17.35;;;11.85;;
22005;SDS011;11167;46.988;15.470;2022-12-18T06:44:22;18.37;;;12.20;;
22005;SDS011;11167;46.988;15.470;2022-12-18T06:46:23;17.20;;;11.90;;
22005;SDS011;11167;46.988;15.470;2022-12-18T06:48:24;16.45;;;11.57;;
22005;SDS011;11167;46.988;15.470;2022-12-18T06:50:25;17.98;;;12.13;;
22005;SDS011;11167;46.988;15.470;2022-12-18T06:52:27;16.45;;;11.40;;
22005;SDS011;11167;46.988;15.470;2022-12-18T06:54:30;17.55;;;12.25;;
22005;SDS011;11167;46.988;15.470;2022-12-18T06:56:31;16.93;;;11.48;;
22005;SDS011;11167;46.988;15.470;2022-12-18T06:58:32;17.80;;;11.93;;
22005;SDS011;11167;46.988;15.470;2022-12-18T07:00:33;16.27;;;11.00;;
22005;SDS011;11167;46.988;15.470;2022-12-18T07:02:35;15.38;;;10.63;;
22005;SDS011;11167;46.988;15.470;2022-12-18T07:04:36;18.15;;;10.60;;
22005;SDS011;11167;46.988;15.470;2022-12-18T07:06:37;17.20;;;11.65;;
22005;SDS011;11167;46.988;15.470;2022-12-18T07:08:38;17.12;;;11.53;;
22005;SDS011;11167;46.988;15.470;2022-12-18T07:10:40;17.42;;;12.13;;
22005;SDS011;11167;46.988;15.470;2022-12-18T07:12:42;16.60;;;12.00;;
22005;SDS011;11167;46.988;15.470;2022-12-18T07:14:44;17.92;;;11.95;;
22005;SDS011;11167;46.988;15.470;2022-12-18T07:16:45;16.05;;;10.95;;
22005;SDS011;11167;46.988;15.470;2022-12-18T07:18:46;17.55;;;12.33;;
22005;SDS011;11167;46.988;15.470;2022-12-18T07:20:48;17.00;;;12.07;;
22005;SDS011;11167;46.988;15.470;2022-12-18T07:22:49;16.32;;;11.48;;
22005;SDS011;11167;46.988;15.470;2022-12-18T07:24:51;17.42;;;12.10;;
22005;SDS011;11167;46.988;15.470;2022-12-18T07:26:52;19.37;;;12.35;;
22005;SDS011;11167;46.988;15.470;2022-12-18T07:28:56;16.00;;;11.60;;
22005;SDS011;11167;46.988;15.470;2022-12-18T07:31:02;21.37;;;13.30;;
22005;SDS011;11167;46.988;15.470;2022-12-18T07:33:05;16.73;;;11.33;;
22005;SDS011;11167;46.988;15.470;2022-12-18T07:35:06;18.32;;;11.80;;
22005;SDS011;11167;46.988;15.470;2022-12-18T07:37:07;19.23;;;11.90;;
22005;SDS011;11167;46.988;15.470;2022-12-18T07:39:10;19.23;;;12.45;;
22005;SDS011;11167;46.988;15.470;2022-12-18T07:41:12;17.42;;;11.75;;
22005;SDS011;11167;46.988;15.470;2022-12-18T07:43:14;18.77;;;12.13;;
22005;SDS011;11167;46.988;15.470;2022-12-18T07:45:15;17.12;;;12.63;;
22005;SDS011;11167;46.988;15.470;2022-12-18T07:47:17;16.50;;;11.65;;
22005;SDS011;11167;46.988;15.470;2022-12-18T07:49:18;18.77;;;12.07;;
22005;SDS011;11167;46.988;15.470;2022-12-18T07:51:19;17.75;;;12.23;;
22005;SDS011;11167;46.988;15.470;2022-12-18T07:53:20;18.50;;;12.73;;
22005;SDS011;11167;46.988;15.470;2022-12-18T07:55:21;17.55;;;12.18;;
22005;SDS011;11167;46.988;15.470;2022-12-18T07:57:22;18.90;;;12.10;;
22005;SDS011;11167;46.988;15.470;2022-12-18T07:59:23;18.48;;;12.73;;
22005;SDS011;11167;46.988;15.470;2022-12-18T08:01:25;18.55;;;12.98;;
22005;SDS011;11167;46.988;15.470;2022-12-18T08:03:26;18.95;;;13.10;;
22005;SDS011;11167;46.988;15.470;2022-12-18T08:05:27;20.92;;;13.13;;
22005;SDS011;11167;46.988;15.470;2022-12-18T08:07:28;19.65;;;13.50;;
22005;SDS011;11167;46.988;15.470;2022-12-18T08:09:29;18.87;;;12.93;;
22005;SDS011;11167;46.988;15.470;2022-12-18T08:11:31;20.08;;;13.53;;
22005;SDS011;11167;46.988;15.470;2022-12-18T08:13:32;19.52;;;12.63;;
22005;SDS011;11167;46.988;15.470;2022-12-18T08:15:33;20.00;;;13.43;;
22005;SDS011;11167;46.988;15.470;2022-12-18T08:17:34;19.05;;;13.53;;
22005;SDS011;11167;46.988;15.470;2022-12-18T08:19:35;18.92;;;12.43;;
22005;SDS011;11167;46.988;15.470;2022-12-18T08:21:36;18.17;;;12.43;;
22005;SDS011;11167;46.988;15.470;2022-12-18T08:23:37;17.85;;;12.15;;
22005;SDS011;11167;46.988;15.470;2022-12-18T08:25:40;18.77;;;12.60;;
22005;SDS011;11167;46.988;15.470;2022-12-18T08:27:41;16.57;;;12.50;;
22005;SDS011;11167;46.988;15.470;2022-12-18T08:29:42;16.75;;;12.03;;
22005;SDS011;11167;46.988;15.470;2022-12-18T08:31:43;17.55;;;12.07;;
22005;SDS011;11167;46.988;15.470;2022-12-18T08:33:44;17.48;;;12.60;;
22005;SDS011;11167;46.988;15.470;2022-12-18T08:38:07;16.48;;;11.45;;
22005;SDS011;11167;46.988;15.470;2022-12-18T08:40:09;16.57;;;11.83;;
22005;SDS011;11167;46.988;15.470;2022-12-18T08:42:11;17.17;;;11.80;;
22005;SDS011;11167;46.988;15.470;2022-12-18T08:44:31;15.88;;;11.15;;
22005;SDS011;11167;46.988;15.470;2022-12-18T08:46:39;15.30;;;10.93;;
22005;SDS011;11167;46.988;15.470;2022-12-18T08:48:42;16.50;;;11.18;;
22005;SDS011;11167;46.988;15.470;2022-12-18T08:50:43;16.15;;;10.50;;
22005;SDS011;11167;46.988;15.470;2022-12-18T08:52:44;16.45;;;11.53;;
22005;SDS011;11167;46.988;15.470;2022-12-18T08:54:45;15.45;;;10.48;;
22005;SDS011;11167;46.988;15.470;2022-12-18T08:56:46;15.28;;;11.10;;
22005;SDS011;11167;46.988;15.470;2022-12-18T08:58:50;17.90;;;11.33;;
22005;SDS011;11167;46.988;15.470;2022-12-18T09:00:58;15.68;;;10.98;;
22005;SDS011;11167;46.988;15.470;2022-12-18T09:05:28;15.35;;;11.20;;
22005;SDS011;11167;46.988;15.470;2022-12-18T09:07:29;15.88;;;11.78;;
22005;SDS011;11167;46.988;15.470;2022-12-18T09:09:30;16.02;;;11.20;;
22005;SDS011;11167;46.988;15.470;2022-12-18T09:11:31;17.67;;;12.18;;
22005;SDS011;11167;46.988;15.470;2022-12-18T09:13:33;16.00;;;10.82;;
22005;SDS011;11167;46.988;15.470;2022-12-18T09:15:34;16.87;;;11.48;;
22005;SDS011;11167;46.988;15.470;2022-12-18T09:17:44;14.63;;;10.43;;
22005;SDS011;11167;46.988;15.470;2022-12-18T09:19:45;15.63;;;10.38;;
22005;SDS011;11167;46.988;15.470;2022-12-18T09:21:46;14.43;;;10.18;;
22005;SDS011;11167;46.988;15.470;2022-12-18T09:23:51;15.68;;;10.40;;
22005;SDS011;11167;46.988;15.470;2022-12-18T09:25:58;12.95;;;9.50;;
22005;SDS011;11167;46.988;15.470;2022-12-18T09:28:02;14.45;;;10.45;;
22005;SDS011;11167;46.988;15.470;2022-12-18T09:30:01;14.53;;;10.03;;
22005;SDS011;11167;46.988;15.470;2022-12-18T09:32:03;15.10;;;10.13;;
22005;SDS011;11167;46.988;15.470;2022-12-18T09:34:05;13.85;;;9.73;;
22005;SDS011;11167;46.988;15.470;2022-12-18T09:36:07;13.93;;;9.90;;
22005;SDS011;11167;46.988;15.470;2022-12-18T09:38:16;13.58;;;9.93;;
22005;SDS011;11167;46.988;15.470;2022-12-18T09:40:20;15.83;;;10.65;;
22005;SDS011;11167;46.988;15.470;2022-12-18T09:42:23;16.20;;;11.08;;
22005;SDS011;11167;46.988;15.470;2022-12-18T09:46:39;17.48;;;10.98;;
22005;SDS011;11167;46.988;15.470;2022-12-18T09:48:44;15.65;;;11.05;;
22005;SDS011;11167;46.988;15.470;2022-12-18T09:50:47;17.70;;;11.55;;
22005;SDS011;11167;46.988;15.470;2022-12-18T09:52:51;18.70;;;11.45;;
22005;SDS011;11167;46.988;15.470;2022-12-18T09:55:05;17.92;;;11.73;;
22005;SDS011;11167;46.988;15.470;2022-12-18T09:57:13;19.12;;;12.85;;
22005;SDS011;11167;46.988;15.470;2022-12-18T09:59:26;18.17;;;13.05;;
22005;SDS011;11167;46.988;15.470;2022-12-18T10:01:27;19.35;;;13.22;;
22005;SDS011;11167;46.988;15.470;2022-12-18T10:03:29;19.02;;;13.45;;
22005;SDS011;11167;46.988;15.470;2022-12-18T10:10:19;20.25;;;13.98;;
22005;SDS011;11167;46.988;15.470;2022-12-18T10:19:08;23.22;;;15.60;;
22005;SDS011;11167;46.988;15.470;2022-12-18T10:21:17;23.42;;;16.40;;
22005;SDS011;11167;46.988;15.470;2022-12-18T10:23:23;23.45;;;16.00;;
22005;SDS011;11167;46.988;15.470;2022-12-18T10:25:47;24.00;;;16.90;;
22005;SDS011;11167;46.988;15.470;2022-12-18T10:28:08;26.73;;;16.85;;
22005;SDS011;11167;46.988;15.470;2022-12-18T10:30:21;25.57;;;16.77;;
22005;SDS011;11167;46.988;15.470;2022-12-18T10:32:20;24.23;;;16.17;;
22005;SDS011;11167;46.988;15.470;2022-12-18T10:34:29;25.52;;;17.23;;
22005;SDS011;11167;46.988;15.470;2022-12-18T10:36:31;27.13;;;17.50;;
22005;SDS011;11167;46.988;15.470;2022-12-18T10:38:32;26.73;;;17.20;;
22005;SDS011;11167;46.988;15.470;2022-12-18T10:40:47;25.02;;;16.93;;
22005;SDS011;11167;46.988;15.470;2022-12-18T10:42:39;25.43;;;17.02;;
22005;SDS011;11167;46.988;15.470;2022-12-18T10:44:42;27.07;;;17.07;;
22005;SDS011;11167;46.988;15.470;2022-12-18T10:46:53;24.27;;;16.50;;
22005;SDS011;11167;46.988;15.470;2022-12-18T10:48:54;25.40;;;17.10;;
22005;SDS011;11167;46.988;15.470;2022-12-18T10:50:57;23.67;;;16.57;;
22005;SDS011;11167;46.988;15.470;2022-12-18T10:53:00;23.73;;;16.50;;
22005;SDS011;11167;46.988;15.470;2022-12-18T10:55:03;22.15;;;15.72;;
22005;SDS011;11167;46.988;15.470;2022-12-18T10:57:28;24.20;;;16.07;;
22005;SDS011;11167;46.988;15.470;2022-12-18T10:59:19;26.68;;;17.82;;
22005;SDS011;11167;46.988;15.470;2022-12-18T11:01:20;26.52;;;17.57;;
22005;SDS011;11167;46.988;15.470;2022-12-18T11:03:29;25.32;;;16.95;;
22005;SDS011;11167;46.988;15.470;2022-12-18T11:05:37;25.23;;;16.93;;
22005;SDS011;11167;46.988;15.470;2022-12-18T11:07:46;24.18;;;16.93;;
22005;SDS011;11167;46.988;15.470;2022-12-18T11:10:00;26.07;;;17.05;;
22005;SDS011;11167;46.988;15.470;2022-12-18T11:12:15;28.77;;;18.62;;
22005;SDS011;11167;46.988;15.470;2022-12-18T11:14:20;26.95;;;17.90;;
22005;SDS011;11167;46.988;15.470;2022-12-18T11:16:25;28.90;;;18.42;;
22005;SDS011;11167;46.988;15.470;2022-12-18T11:18:34;26.80;;;17.95;;
22005;SDS011;11167;46.988;15.470;2022-12-18T11:20:36;28.80;;;18.90;;
22005;SDS011;11167;46.988;15.470;2022-12-18T11:22:37;26.50;;;17.73;;
22005;SDS011;11167;46.988;15.470;2022-12-18T11:24:40;28.87;;;18.55;;
22005;SDS011;11167;46.988;15.470;2022-12-18T11:26:41;31.23;;;19.82;;
22005;SDS011;11167;46.988;15.470;2022-12-18T11:28:49;28.87;;;18.80;;
22005;SDS011;11167;46.988;15.470;2022-12-18T11:33:21;26.15;;;18.15;;
22005;SDS011;11167;46.988;15.470;2022-12-18T11:35:37;28.25;;;19.60;;
22005;SDS011;11167;46.988;15.470;2022-12-18T11:37:58;27.75;;;19.05;;
22005;SDS011;11167;46.988;15.470;2022-12-18T11:40:10;27.80;;;18.12;;
22005;SDS011;11167;46.988;15.470;2022-12-18T11:44:38;27.02;;;17.77;;
22005;SDS011;11167;46.988;15.470;2022-12-18T11:46:46;28.23;;;18.20;;
22005;SDS011;11167;46.988;15.470;2022-12-18T11:51:03;24.32;;;16.62;;
22005;SDS011;11167;46.988;15.470;2022-12-18T11:53:09;27.55;;;17.67;;
22005;SDS011;11167;46.988;15.470;2022-12-18T11:55:13;26.35;;;17.62;;
22005;SDS011;11167;46.988;15.470;2022-12-18T11:57:26;24.12;;;17.02;;
22005;SDS011;11167;46.988;15.470;2022-12-18T12:14:03;28.80;;;19.52;;
22005;SDS011;11167;46.988;15.470;2022-12-18T12:18:24;31.12;;;19.75;;
22005;SDS011;11167;46.988;15.470;2022-12-18T12:20:35;30.65;;;19.75;;
22005;SDS011;11167;46.988;15.470;2022-12-18T12:22:53;33.28;;;20.20;;
22005;SDS011;11167;46.988;15.470;2022-12-18T12:25:12;28.85;;;19.12;;
22005;SDS011;11167;46.988;15.470;2022-12-18T12:32:12;31.17;;;19.35;;
22005;SDS011;11167;46.988;15.470;2022-12-18T12:39:11;26.90;;;18.50;;
22005;SDS011;11167;46.988;15.470;2022-12-18T12:41:17;27.90;;;17.55;;
22005;SDS011;11167;46.988;15.470;2022-12-18T12:46:06;24.90;;;17.20;;
22005;SDS011;11167;46.988;15.470;2022-12-18T12:48:15;25.88;;;17.55;;
22005;SDS011;11167;46.988;15.470;2022-12-18T12:50:15;26.97;;;17.70;;
22005;SDS011;11167;46.988;15.470;2022-12-18T12:54:28;25.80;;;17.42;;
22005;SDS011;11167;46.988;15.470;2022-12-18T13:05:58;28.98;;;17.62;;
22005;SDS011;11167;46.988;15.470;2022-12-18T13:08:04;26.57;;;17.23;;
22005;SDS011;11167;46.988;15.470;2022-12-18T13:12:23;27.13;;;18.12;;
22005;SDS011;11167;46.988;15.470;2022-12-18T13:14:43;25.95;;;16.85;;
22005;SDS011;11167;46.988;15.470;2022-12-18T13:16:45;25.50;;;16.57;;
22005;SDS011;11167;46.988;15.470;2022-12-18T13:18:52;23.65;;;15.28;;
22005;SDS011;11167;46.988;15.470;2022-12-18T13:29:47;21.10;;;14.43;;
22005;SDS011;11167;46.988;15.470;2022-12-18T13:36:32;24.07;;;15.25;;
22005;SDS011;11167;46.988;15.470;2022-12-18T13:38:35;24.35;;;15.68;;